YM Initiative — A8HX4 — position and weather

sailwx.info

Track history (hours):
 
Tides and Currents Weather Stations Pressure Air Temp Water Temp Dewpoint Dewpoint Depression Visibility Wind Speed Wind Dir Waves Ship Positions

YM Initiative

Last reported at 2017-Jun-24 03:11 UTC. Time now 2017-Jun-24 10:29 UTC.
Position N 24°20' E 118°38'.

Length 173 m; draft 7.7 m.

Type: Cargo ship. MMSI: 635961368.

Date/timePositionNaut miles runAvg speedWind from/ knotsBaromVisibWave heightAir tempDewpointWater temp
2017-Jun-24 03:11N 24°20' E 118°38'417.3
2017-Jun-24 02:55N 24°17' E 118°34'715.3
2017-Jun-24 02:28N 24°18' E 118°27'817.3
2017-Jun-24 02:00N 24°19' E 118°18'815.5
2017-Jun-24 01:31N 24°21' E 118°10'612.7
2017-Jun-24 01:01N 24°25' E 118°05'510.0
2017-Jun-24 00:30N 24°30' E 118°04'1 2.1
2017-Jun-23 23:59N 24°31' E 118°05'0 0.1
2017-Jun-23 23:29N 24°31' E 118°05'0 0.1
2017-Jun-23 22:53N 24°31' E 118°05'0 0.0
2017-Jun-23 22:29N 24°31' E 118°05'0 0.0
2017-Jun-23 21:59N 24°31' E 118°05'0 0.1
2017-Jun-23 21:29N 24°31' E 118°05'0 0.0
2017-Jun-23 20:59N 24°31' E 118°05'0 0.1
2017-Jun-23 20:29N 24°31' E 118°05'0 0.0
2017-Jun-23 19:59N 24°31' E 118°05'0 0.0
2017-Jun-23 19:29N 24°31' E 118°05'0 0.0
2017-Jun-23 18:59N 24°31' E 118°05'0 0.1
2017-Jun-23 18:29N 24°31' E 118°05'0 0.0
2017-Jun-23 17:59N 24°31' E 118°05'0 0.0
2017-Jun-23 17:29N 24°31' E 118°05'0 0.0
2017-Jun-23 16:59N 24°31' E 118°05'0 0.1
2017-Jun-23 16:23N 24°31' E 118°05'0 0.1
2017-Jun-23 15:59N 24°31' E 118°05'0 0.1
2017-Jun-23 15:29N 24°31' E 118°05'0 0.0
2017-Jun-23 14:56N 24°31' E 118°05'0 0.1
2017-Jun-23 13:59N 24°31' E 118°05'0 0.0
2017-Jun-23 13:29N 24°31' E 118°05'0 0.1
2017-Jun-23 12:53N 24°31' E 118°05'0 0.0
2017-Jun-23 12:17N 24°31' E 118°05'0 0.2
2017-Jun-23 11:59N 24°31' E 118°05'0 0.0
2017-Jun-23 11:29N 24°31' E 118°05'0 0.1
2017-Jun-23 10:59N 24°31' E 118°05'0 0.1
2017-Jun-23 10:29N 24°31' E 118°05'0 0.1
2017-Jun-23 10:01N 24°31' E 118°05'2 4.5
2017-Jun-23 09:30N 24°29' E 118°04'510.8
2017-Jun-23 09:01N 24°24' E 118°06'611.1
2017-Jun-23 08:31N 24°20' E 118°10'5 9.5
2017-Jun-23 08:01N 24°18' E 118°15'4 8.1
2017-Jun-23 07:31N 24°16' E 118°19'510.5
2017-Jun-23 07:00N 24°11' E 118°19'611.8
2017-Jun-23 06:30N 24°05' E 118°20'611.6
2017-Jun-23 06:00N 23°59' E 118°19'612.1
2017-Jun-23 05:30N 23°55' E 118°15'611.9
2017-Jun-23 05:00N 23°50' E 118°11'712.1
2017-Jun-23 04:28N 23°45' E 118°07'1112.0
2017-Jun-23 03:35N 23°37' E 117°59'  
2017-Jun-20 04:34N 22°29' E 119°46'217.8
2017-Jun-20 04:29N 22°29' E 119°47'817.6
2017-Jun-20 04:00N 22°31' E 119°56'917.2
2017-Jun-20 03:30N 22°32' E 120°06'816.4
2017-Jun-20 03:00N 22°33' E 120°14'5 9.4
2017-Jun-20 02:30N 22°33' E 120°19'0 0.4
2017-Jun-20 01:50N 22°33' E 120°19'0 0.0
2017-Jun-20 01:23N 22°33' E 120°19'0 0.0
2017-Jun-20 00:59N 22°33' E 120°19'0 0.0
2017-Jun-19 15:07N 22°33' E 120°19'1 4.8
2017-Jun-19 14:57N 22°33' E 120°18'5 4.6
2017-Jun-19 13:47N 22°32' E 120°13'1 1.0
2017-Jun-19 13:11N 22°32' E 120°13'210.1
2017-Jun-19 12:59N 22°34' E 120°11'1 2.1
2017-Jun-19 12:29N 22°34' E 120°10'1 1.0
2017-Jun-19 11:59N 22°33' E 120°10'1 1.2
2017-Jun-19 11:29N 22°33' E 120°10'0 1.0
2017-Jun-19 10:59N 22°32' E 120°10'2 4.9
2017-Jun-19 10:30N 22°35' E 120°10'5 9.6
2017-Jun-19 10:00N 22°39' E 120°08'510.0
2017-Jun-19 09:30N 22°44' E 120°06'510.1
2017-Jun-19 09:00N 22°48' E 120°03'  
2017-Jun-16 18:39N 30°46' E 125°24'110.0
2017-Jun-16 18:30N 30°47' E 125°25'  
Track history (hours):
 
Tides and Currents Weather Stations Pressure Air Temp Water Temp Dewpoint Dewpoint Depression Visibility Wind Speed Wind Dir Waves Ship Positions

YM Initiative

Last reported at 2017-Jun-24 03:11 UTC. Time now 2017-Jun-24 10:29 UTC.
Position N 24°20' E 118°38'.

Length 173 m; draft 7.7 m.

Type: Cargo ship. MMSI: 635961368.

Date/timePositionNaut miles runAvg speedWind from/ knotsBaromVisibWave heightAir tempDewpointWater temp
2017-Jun-24 03:11N 24°20' E 118°38'417.3
2017-Jun-24 02:55N 24°17' E 118°34'715.3
2017-Jun-24 02:28N 24°18' E 118°27'817.3
2017-Jun-24 02:00N 24°19' E 118°18'815.5
2017-Jun-24 01:31N 24°21' E 118°10'612.7
2017-Jun-24 01:01N 24°25' E 118°05'510.0
2017-Jun-24 00:30N 24°30' E 118°04'1 2.1
2017-Jun-23 23:59N 24°31' E 118°05'0 0.1
2017-Jun-23 23:29N 24°31' E 118°05'0 0.1
2017-Jun-23 22:53N 24°31' E 118°05'0 0.0
2017-Jun-23 22:29N 24°31' E 118°05'0 0.0
2017-Jun-23 21:59N 24°31' E 118°05'0 0.1
2017-Jun-23 21:29N 24°31' E 118°05'0 0.0
2017-Jun-23 20:59N 24°31' E 118°05'0 0.1
2017-Jun-23 20:29N 24°31' E 118°05'0 0.0
2017-Jun-23 19:59N 24°31' E 118°05'0 0.0
2017-Jun-23 19:29N 24°31' E 118°05'0 0.0
2017-Jun-23 18:59N 24°31' E 118°05'0 0.1
2017-Jun-23 18:29N 24°31' E 118°05'0 0.0
2017-Jun-23 17:59N 24°31' E 118°05'0 0.0
2017-Jun-23 17:29N 24°31' E 118°05'0 0.0
2017-Jun-23 16:59N 24°31' E 118°05'0 0.1
2017-Jun-23 16:23N 24°31' E 118°05'0 0.1
2017-Jun-23 15:59N 24°31' E 118°05'0 0.1
2017-Jun-23 15:29N 24°31' E 118°05'0 0.0
2017-Jun-23 14:56N 24°31' E 118°05'0 0.1
2017-Jun-23 13:59N 24°31' E 118°05'0 0.0
2017-Jun-23 13:29N 24°31' E 118°05'0 0.1
2017-Jun-23 12:53N 24°31' E 118°05'0 0.0
2017-Jun-23 12:17N 24°31' E 118°05'0 0.2
2017-Jun-23 11:59N 24°31' E 118°05'0 0.0
2017-Jun-23 11:29N 24°31' E 118°05'0 0.1
2017-Jun-23 10:59N 24°31' E 118°05'0 0.1
2017-Jun-23 10:29N 24°31' E 118°05'0 0.1
2017-Jun-23 10:01N 24°31' E 118°05'2 4.5
2017-Jun-23 09:30N 24°29' E 118°04'510.8
2017-Jun-23 09:01N 24°24' E 118°06'611.1
2017-Jun-23 08:31N 24°20' E 118°10'5 9.5
2017-Jun-23 08:01N 24°18' E 118°15'4 8.1
2017-Jun-23 07:31N 24°16' E 118°19'510.5
2017-Jun-23 07:00N 24°11' E 118°19'611.8
2017-Jun-23 06:30N 24°05' E 118°20'611.6
2017-Jun-23 06:00N 23°59' E 118°19'612.1
2017-Jun-23 05:30N 23°55' E 118°15'611.9
2017-Jun-23 05:00N 23°50' E 118°11'712.1
2017-Jun-23 04:28N 23°45' E 118°07'1112.0
2017-Jun-23 03:35N 23°37' E 117°59'  
2017-Jun-20 04:34N 22°29' E 119°46'217.8
2017-Jun-20 04:29N 22°29' E 119°47'817.6
2017-Jun-20 04:00N 22°31' E 119°56'917.2
2017-Jun-20 03:30N 22°32' E 120°06'816.4
2017-Jun-20 03:00N 22°33' E 120°14'5 9.4
2017-Jun-20 02:30N 22°33' E 120°19'0 0.4
2017-Jun-20 01:50N 22°33' E 120°19'0 0.0
2017-Jun-20 01:23N 22°33' E 120°19'0 0.0
2017-Jun-20 00:59N 22°33' E 120°19'0 0.0
2017-Jun-19 15:07N 22°33' E 120°19'1 4.8
2017-Jun-19 14:57N 22°33' E 120°18'5 4.6
2017-Jun-19 13:47N 22°32' E 120°13'1 1.0
2017-Jun-19 13:11N 22°32' E 120°13'210.1
2017-Jun-19 12:59N 22°34' E 120°11'1 2.1
2017-Jun-19 12:29N 22°34' E 120°10'1 1.0
2017-Jun-19 11:59N 22°33' E 120°10'1 1.2
2017-Jun-19 11:29N 22°33' E 120°10'0 1.0
2017-Jun-19 10:59N 22°32' E 120°10'2 4.9
2017-Jun-19 10:30N 22°35' E 120°10'5 9.6
2017-Jun-19 10:00N 22°39' E 120°08'510.0
2017-Jun-19 09:30N 22°44' E 120°06'510.1
2017-Jun-19 09:00N 22°48' E 120°03'  
2017-Jun-16 18:39N 30°46' E 125°24'110.0
2017-Jun-16 18:30N 30°47' E 125°25'  

Dump ship's entire track history